Time;durP1;ratioP1;P1;durP2;ratioP2;P2;SDS_P1;SDS_P2;PMS_P1;PMS_P2;Temp;Humidity;BMP_temperature;BMP_pressure;BME280_temperature;BME280_humidity;BME280_pressure;Samples;Min_cycle;Max_cycle;Signal;HPM_P1;HPM_P2
2021/07/15 00:35:54;;;;;;;28.00;14.30;;;;;;;18.58;58.58;101041.94;5028859;28;20088;-73
2021/07/15 03:53:03;;;;;;;24.80;15.52;;;;;;;18.23;59.19;101121.16;5006535;28;20045;-69
2021/07/15 07:04:36;;;;;;;22.25;10.43;;;;;;;16.95;61.69;101250.06;4994570;28;20062;-70
2021/07/15 07:54:05;;;;;;;29.48;10.50;;;;;;;17.74;58.39;101314.75;4931978;29;20177;-72
2021/07/15 08:27:49;;;;;;;26.58;7.93;;;;;;;17.60;58.56;101331.50;4905417;29;20152;-71
2021/07/15 08:34:33;;;;;;;26.55;6.38;;;;;;;16.88;60.35;101357.00;4962118;28;20042;-72
2021/07/15 08:41:14;;;;;;;22.10;7.53;;;;;;;17.69;57.99;101353.84;4897937;29;20048;-68
2021/07/15 08:44:44;;;;;;;23.13;7.20;;;;;;;17.79;57.44;101355.84;4896276;29;20100;-68
2021/07/15 08:51:18;;;;;;;27.17;8.00;;;;;;;17.71;57.12;101375.75;4898452;29;20054;-69
2021/07/15 08:57:48;;;;;;;28.70;8.98;;;;;;;17.83;56.55;101377.66;4914778;29;20084;-69
2021/07/15 09:01:01;;;;;;;18.15;9.98;;;;;;;17.57;57.53;101376.63;4911029;29;20055;-69
2021/07/15 09:34:56;;;;;;;20.10;7.85;;;;;;;17.94;55.93;101396.34;4859512;29;20310;-70
2021/07/15 09:46:02;;;;;;;17.92;7.38;;;;;;;18.13;54.86;101398.63;4822008;29;20601;-70
2021/07/15 09:52:57;;;;;;;22.73;8.02;;;;;;;18.42;54.47;101399.44;4876100;29;20123;-69
2021/07/15 09:56:25;;;;;;;20.17;6.00;;;;;;;18.20;54.63;101391.19;4876427;29;20088;-70
2021/07/15 10:52:49;;;;;;;18.88;7.60;;;;;;;18.46;53.52;101445.09;5051590;28;20039;-73
2021/07/15 11:07:30;;;;;;;19.88;7.35;;;;;;;19.36;51.58;101440.06;5027367;28;20047;-73
2021/07/15 11:10:50;;;;;;;19.80;7.68;;;;;;;19.32;50.82;101435.91;5043356;28;20049;-73
2021/07/15 11:14:15;;;;;;;16.85;6.70;;;;;;;20.18;48.61;101443.19;5041508;28;20087;-73
2021/07/15 11:28:14;;;;;;;19.42;6.15;;;;;;;20.30;48.24;101450.28;4895090;28;20050;-69
2021/07/15 11:30:43;;;;;;;14.27;5.93;;;;;;;20.51;47.14;101461.16;5042331;28;20106;-69
2021/07/15 11:35:53;;;;;;;13.98;5.88;;;;;;;20.82;46.77;101462.41;5041258;28;20394;-69
2021/07/15 11:38:27;;;;;;;15.65;5.43;;;;;;;21.04;46.43;101468.75;5037976;28;20029;-69
2021/07/15 11:40:53;;;;;;;14.63;5.97;;;;;;;20.37;47.69;101472.75;5001349;28;20067;-70
2021/07/15 11:43:29;;;;;;;18.23;6.22;;;;;;;21.05;46.32;101476.63;5042575;28;20128;-70
2021/07/15 11:46:11;;;;;;;10.98;4.32;;;;;;;21.07;46.14;101465.91;5046161;28;20033;-70
2021/07/15 11:49:00;;;;;;;11.23;4.50;;;;;;;21.58;44.72;101468.22;5044497;28;20060;-71
2021/07/15 11:51:33;;;;;;;10.63;4.70;;;;;;;21.31;44.77;101472.00;5014242;28;20463;-69
2021/07/15 11:54:36;;;;;;;15.80;4.78;;;;;;;21.12;46.23;101479.69;5028254;28;20037;-70
2021/07/15 11:57:11;;;;;;;13.23;5.25;;;;;;;21.64;44.80;101473.03;5041065;28;20052;-70
2021/07/15 11:59:37;;;;;;;17.95;6.72;;;;;;;21.83;44.60;101476.94;5043189;28;20036;-69
2021/07/15 12:02:22;;;;;;;16.88;5.72;;;;;;;21.84;43.84;101484.78;5044541;28;20033;-69
2021/07/15 12:05:11;;;;;;;15.57;5.15;;;;;;;21.33;44.54;101488.69;5042942;28;20064;-68
2021/07/15 12:07:46;;;;;;;13.02;4.88;;;;;;;20.66;45.94;101483.94;5041871;28;20037;-70
2021/07/15 12:10:25;;;;;;;12.75;5.72;;;;;;;20.40;46.79;101479.69;5042491;28;20414;-71
2021/07/15 12:12:52;;;;;;;11.82;5.50;;;;;;;20.49;46.55;101484.31;5043597;28;20159;-70
2021/07/15 12:15:23;;;;;;;18.25;6.03;;;;;;;20.64;46.34;101487.63;5042607;28;20029;-70
2021/07/15 12:17:51;;;;;;;15.73;5.90;;;;;;;20.74;46.92;101491.31;5042761;28;20041;-68
2021/07/15 12:20:18;;;;;;;16.27;5.47;;;;;;;20.33;47.24;101484.59;5043542;28;20036;-69
2021/07/15 12:23:05;;;;;;;13.93;5.30;;;;;;;20.59;46.71;101484.47;5026071;28;20036;-70
2021/07/15 12:25:35;;;;;;;16.50;6.60;;;;;;;20.70;46.03;101484.53;5043422;28;20155;-69
2021/07/15 12:28:07;;;;;;;21.05;7.13;;;;;;;20.90;45.96;101483.94;5043211;28;20041;-69
2021/07/15 12:30:50;;;;;;;16.67;5.25;;;;;;;20.63;45.90;101485.97;5043729;28;20508;-68
2021/07/15 12:33:17;;;;;;;18.83;6.57;;;;;;;20.24;46.62;101490.53;5020106;28;20040;-69
2021/07/15 12:35:45;;;;;;;19.67;5.45;;;;;;;20.01;46.85;101494.78;5045316;28;20029;-68
2021/07/15 12:38:31;;;;;;;16.38;5.55;;;;;;;19.57;48.23;101483.69;5045041;28;20509;-70
2021/07/15 12:41:08;;;;;;;15.30;6.70;;;;;;;20.30;46.66;101487.44;5046954;28;20029;-68
2021/07/15 12:43:47;;;;;;;14.50;5.57;;;;;;;20.70;45.58;101496.00;5045123;28;20025;-68
2021/07/15 12:46:15;;;;;;;9.38;5.10;;;;;;;21.03;45.03;101497.16;5045250;28;20060;-70
2021/07/15 12:49:02;;;;;;;14.70;5.72;;;;;;;21.41;45.23;101505.88;5045750;28;20033;-68
2021/07/15 12:51:43;;;;;;;15.15;5.28;;;;;;;21.37;43.92;101502.56;5032424;28;20444;-68
2021/07/15 12:54:15;;;;;;;17.27;5.88;;;;;;;21.50;44.17;101513.16;5045409;28;20182;-69
2021/07/15 12:56:41;;;;;;;15.68;5.43;;;;;;;21.73;44.21;101509.56;5045852;28;20029;-69
2021/07/15 12:59:11;;;;;;;13.55;5.20;;;;;;;21.45;43.87;101510.00;5045395;28;20056;-70
2021/07/15 13:01:42;;;;;;;10.40;5.20;;;;;;;20.98;44.50;101515.25;5045847;28;20504;-69
2021/07/15 13:04:09;;;;;;;;;;;;;;;20.64;45.16;101508.88;5045136;28;20033;-69
2021/07/15 13:06:37;;;;;;;16.08;5.10;;;;;;;20.36;45.83;101497.63;5024698;28;20366;-70
2021/07/15 13:14:36;;;;;;;16.58;5.85;;;;;;;20.54;45.79;101530.81;5044808;28;20051;-69
2021/07/15 13:17:03;;;;;;;15.02;5.40;;;;;;;20.46;46.51;101521.69;5044543;28;20021;-69
2021/07/15 13:19:35;;;;;;;8.82;4.93;;;;;;;20.83;45.15;101525.19;5045518;28;20039;-69
2021/07/15 13:22:13;;;;;;;14.35;5.93;;;;;;;21.03;44.62;101528.22;5045230;28;20044;-68
2021/07/15 13:24:40;;;;;;;16.25;4.90;;;;;;;20.18;46.67;101522.81;5047083;28;20080;-70
2021/07/15 13:27:16;;;;;;;20.95;5.55;;;;;;;20.31;45.96;101526.31;5046693;28;20029;-68
2021/07/15 13:29:43;;;;;;;19.08;5.65;;;;;;;20.32;46.13;101530.66;5045944;28;20028;-69
2021/07/15 13:32:08;;;;;;;12.60;5.53;;;;;;;20.49;46.54;101526.81;5026440;28;20115;-69
2021/07/15 13:34:37;;;;;;;14.05;5.28;;;;;;;20.70;44.88;101527.88;5046218;28;20135;-70
2021/07/15 13:37:03;;;;;;;14.30;5.88;;;;;;;20.39;45.78;101531.06;5026730;28;20445;-70
2021/07/15 13:39:45;;;;;;;13.10;5.40;;;;;;;19.54;47.62;101518.31;5027047;28;20029;-71
2021/07/15 13:42:14;;;;;;;15.20;5.57;;;;;;;19.65;47.62;101531.72;5041303;28;20167;-68
2021/07/15 13:44:47;;;;;;;13.95;5.78;;;;;;;19.41;47.55;101533.34;5046208;28;20385;-69
2021/07/15 13:47:13;;;;;;;8.82;4.50;;;;;;;20.11;46.43;101533.84;5044373;28;20540;-69
2021/07/15 13:49:39;;;;;;;14.60;4.50;;;;;;;20.44;45.94;101536.88;5045785;28;20136;-69
2021/07/15 13:52:13;;;;;;;17.95;4.57;;;;;;;20.70;45.65;101540.31;5044461;28;20029;-68
2021/07/15 13:54:39;;;;;;;9.02;4.75;;;;;;;20.74;44.58;101542.63;5045194;28;20029;-69
2021/07/15 13:57:11;;;;;;;17.73;4.13;;;;;;;20.97;44.43;101536.63;5044755;28;20111;-70
2021/07/15 13:59:38;;;;;;;12.70;5.07;;;;;;;21.03;44.67;101547.66;5045425;28;20040;-69
2021/07/15 14:02:14;;;;;;;14.15;4.50;;;;;;;21.32;43.51;101542.81;5044088;28;20024;-68
2021/07/15 14:04:45;;;;;;;14.02;3.10;;;;;;;21.51;43.49;101544.09;5045120;28;20490;-69
2021/07/15 14:07:14;;;;;;;8.13;2.97;;;;;;;22.30;41.33;101538.91;5044522;28;20025;-69
2021/07/15 14:09:41;;;;;;;17.20;3.03;;;;;;;21.77;41.79;101548.25;5043543;28;20036;-69
2021/07/15 14:12:11;;;;;;;13.05;3.13;;;;;;;21.27;43.55;101541.47;5042132;28;20040;-73
2021/07/15 14:14:45;;;;;;;10.75;3.13;;;;;;;21.17;43.82;101543.97;5045019;28;20025;-69
2021/07/15 14:17:18;;;;;;;22.80;4.20;;;;;;;21.10;44.04;101542.72;5020610;28;20029;-69
2021/07/15 14:19:43;;;;;;;10.48;3.53;;;;;;;20.19;45.25;101540.41;5045245;28;20052;-69
2021/07/15 14:22:09;;;;;;;12.32;3.60;;;;;;;20.26;45.54;101537.25;5043693;28;20466;-70
2021/07/15 14:24:34;;;;;;;8.00;2.92;;;;;;;20.57;45.29;101547.47;5045629;28;20441;-69
2021/07/15 14:26:59;;;;;;;23.48;4.82;;;;;;;20.86;44.15;101551.53;5044844;28;20051;-72
2021/07/15 14:29:25;;;;;;;20.90;3.40;;;;;;;20.52;44.98;101553.13;5045024;28;20114;-69
2021/07/15 14:31:52;;;;;;;10.90;2.50;;;;;;;20.33;44.90;101553.59;5044880;28;20055;-68
2021/07/15 14:34:18;;;;;;;19.90;4.50;;;;;;;20.50;44.88;101550.56;5042695;28;20064;-69
2021/07/15 14:36:43;;;;;;;14.32;3.67;;;;;;;20.18;45.60;101552.00;5045354;28;20073;-69
2021/07/15 14:39:09;;;;;;;10.68;3.42;;;;;;;20.47;45.47;101542.81;5043220;28;20041;-68
2021/07/15 14:41:35;;;;;;;10.35;3.40;;;;;;;20.71;44.80;101550.00;5009006;28;20040;-70
2021/07/15 14:44:00;;;;;;;13.35;3.22;;;;;;;21.44;43.03;101545.50;5044479;28;20043;-69
2021/07/15 14:46:26;;;;;;;14.63;3.33;;;;;;;20.89;43.70;101556.66;5044435;28;20033;-71
2021/07/15 14:48:51;;;;;;;14.82;3.08;;;;;;;20.77;44.12;101557.50;5044927;28;20052;-71
2021/07/15 14:51:17;;;;;;;12.07;2.67;;;;;;;20.44;44.57;101559.00;5042192;28;20493;-69
2021/07/15 14:53:43;;;;;;;13.75;2.65;;;;;;;20.40;44.18;101560.16;5044376;28;20393;-70
2021/07/15 14:56:08;;;;;;;9.88;2.83;;;;;;;20.36;44.29;101560.50;5043031;28;20489;-70
2021/07/15 14:58:34;;;;;;;13.18;2.85;;;;;;;20.38;45.13;101551.47;5044222;28;20033;-71
2021/07/15 15:00:59;;;;;;;12.02;3.22;;;;;;;20.10;45.62;101556.03;5025781;28;20033;-70
2021/07/15 15:03:25;;;;;;;16.85;4.03;;;;;;;20.06;45.43;101554.56;5043572;28;20037;-71
2021/07/15 15:05:51;;;;;;;11.13;2.45;;;;;;;20.28;45.02;101555.72;5043526;28;20037;-70
2021/07/15 15:08:17;;;;;;;11.30;2.72;;;;;;;19.87;45.82;101554.13;5024412;28;20028;-71
2021/07/15 15:10:44;;;;;;;11.57;3.17;;;;;;;19.77;45.77;101551.25;5044818;28;20036;-71
2021/07/15 15:13:10;;;;;;;16.88;3.15;;;;;;;19.18;47.04;101564.88;5044029;28;20082;-69
2021/07/15 15:15:35;;;;;;;13.27;2.63;;;;;;;19.02;47.28;101553.59;5025108;28;20303;-69
2021/07/15 15:18:01;;;;;;;18.42;3.05;;;;;;;19.34;47.20;101559.41;5026753;28;20076;-69
2021/07/15 15:20:27;;;;;;;15.63;3.70;;;;;;;19.08;47.99;101566.47;5024368;28;20453;-70
2021/07/15 15:22:54;;;;;;;7.75;3.10;;;;;;;19.66;47.07;101575.00;5044134;28;20568;-70
2021/07/15 15:25:21;;;;;;;16.80;3.58;;;;;;;19.05;48.58;101575.44;5042169;28;20485;-69
2021/07/15 15:27:46;;;;;;;11.80;3.05;;;;;;;19.32;47.94;101579.03;5030730;28;20117;-71
2021/07/15 15:30:12;;;;;;;19.73;2.80;;;;;;;19.45;46.93;101578.09;5042740;28;20112;-71
2021/07/15 15:32:40;;;;;;;9.55;2.78;;;;;;;19.61;46.75;101579.75;5026066;28;20035;-71
2021/07/15 15:35:11;;;;;;;11.85;2.88;;;;;;;19.40;47.04;101584.69;5042123;28;20036;-71
2021/07/15 15:37:36;;;;;;;16.33;3.22;;;;;;;19.83;45.49;101576.50;5042627;28;20714;-69
2021/07/15 15:40:03;;;;;;;12.40;3.15;;;;;;;19.60;46.40;101578.91;5042881;28;20033;-68
2021/07/15 15:42:29;;;;;;;13.13;3.08;;;;;;;19.21;47.13;101574.44;5025239;28;20492;-70
2021/07/15 15:44:54;;;;;;;11.93;3.00;;;;;;;19.65;46.48;101582.09;5043928;28;20185;-69
2021/07/15 15:47:20;;;;;;;11.40;3.03;;;;;;;19.60;46.57;101580.72;5041853;28;20033;-71
2021/07/15 15:49:45;;;;;;;16.83;3.10;;;;;;;19.66;46.08;101585.63;5040975;28;20104;-72
2021/07/15 15:52:13;;;;;;;9.13;2.70;;;;;;;19.69;45.73;101582.75;5039471;28;20060;-72
2021/07/15 15:54:40;;;;;;;7.22;2.28;;;;;;;19.28;46.55;101581.88;5039820;28;20028;-70
2021/07/15 15:57:06;;;;;;;18.95;3.30;;;;;;;19.59;46.77;101579.00;5040000;28;21724;-70
2021/07/15 15:59:33;;;;;;;13.23;2.45;;;;;;;19.29;46.44;101582.72;5040307;28;20051;-69
2021/07/15 16:01:59;;;;;;;6.72;2.58;;;;;;;19.63;46.63;101576.03;5041062;28;20032;-71
2021/07/15 16:04:26;;;;;;;12.65;2.58;;;;;;;19.98;45.41;101570.16;5022690;28;20336;-69
2021/07/15 16:06:53;;;;;;;11.77;2.55;;;;;;;19.88;45.34;101569.06;5040588;28;20075;-72
2021/07/15 16:09:19;;;;;;;14.43;2.65;;;;;;;19.74;45.60;101559.41;5022175;28;20138;-70
2021/07/15 16:11:46;;;;;;;11.07;2.83;;;;;;;19.60;46.40;101555.06;5023477;28;20037;-71
2021/07/15 16:14:12;;;;;;;13.13;2.67;;;;;;;19.41;46.82;101565.16;5039210;28;20107;-70
2021/07/15 16:16:37;;;;;;;13.55;3.10;;;;;;;18.73;47.86;101561.59;5038774;28;20040;-71
2021/07/15 16:19:03;;;;;;;14.95;3.25;;;;;;;18.97;47.62;101561.84;5039077;28;20091;-70
2021/07/15 16:21:28;;;;;;;15.65;2.95;;;;;;;18.93;47.50;101575.41;5041281;28;20094;-69
2021/07/15 16:23:54;;;;;;;13.30;2.58;;;;;;;19.00;47.86;101574.03;5039194;28;20663;-70
2021/07/15 16:26:19;;;;;;;14.80;3.13;;;;;;;18.80;48.10;101565.53;5029514;28;20154;-72
2021/07/15 16:28:46;;;;;;;16.92;3.47;;;;;;;18.72;48.37;101573.16;5044917;28;21556;-70
2021/07/15 16:31:14;;;;;;;13.20;3.33;;;;;;;18.53;49.44;101580.53;5043553;28;20509;-69
2021/07/15 16:33:43;;;;;;;11.13;2.95;;;;;;;18.84;48.57;101572.34;5025283;28;20090;-70
2021/07/15 16:36:13;;;;;;;10.90;3.17;;;;;;;18.63;49.11;101589.59;5025484;28;20040;-70
2021/07/15 16:38:39;;;;;;;12.45;2.90;;;;;;;18.38;49.76;101580.53;5024314;28;20506;-70
2021/07/15 16:41:06;;;;;;;15.10;3.83;;;;;;;18.23;50.09;101589.44;5043552;28;20029;-71
2021/07/15 16:43:33;;;;;;;16.42;3.65;;;;;;;18.22;49.85;101593.03;5040476;28;20086;-71
2021/07/15 16:46:01;;;;;;;17.42;3.00;;;;;;;18.46;49.08;101583.56;5043020;28;20452;-69
2021/07/15 16:48:27;;;;;;;10.55;2.38;;;;;;;18.86;48.36;101593.44;5025279;28;20686;-71
2021/07/15 16:50:53;;;;;;;10.85;2.00;;;;;;;18.82;48.30;101584.84;5042094;28;20116;-69
2021/07/15 16:53:18;;;;;;;11.15;2.95;;;;;;;18.43;49.56;101583.78;5042658;28;20116;-70
2021/07/15 16:55:44;;;;;;;12.10;2.35;;;;;;;18.79;48.25;101589.50;5043090;28;20048;-71
2021/07/15 16:58:10;;;;;;;16.58;2.00;;;;;;;18.77;48.82;101586.09;5042729;28;20055;-70
2021/07/15 17:00:35;;;;;;;19.95;3.53;;;;;;;19.54;47.33;101587.25;5041804;28;20304;-69
2021/07/15 17:03:01;;;;;;;13.25;2.45;;;;;;;19.26;47.38;101589.09;5044101;28;20092;-69
2021/07/15 17:05:26;;;;;;;14.98;2.38;;;;;;;19.66;46.38;101581.16;5041610;28;20028;-70
2021/07/15 17:07:52;;;;;;;9.55;2.72;;;;;;;19.35;46.90;101586.78;5026066;28;20116;-71
2021/07/15 17:10:17;;;;;;;10.02;2.83;;;;;;;19.25;46.63;101590.03;5042319;28;20132;-69
2021/07/15 17:12:43;;;;;;;10.10;2.13;;;;;;;18.53;48.31;101591.97;5042073;28;20044;-70
2021/07/15 17:15:09;;;;;;;11.73;2.78;;;;;;;18.25;49.32;101595.47;5042847;28;20072;-69
2021/07/15 17:17:36;;;;;;;17.95;4.30;;;;;;;18.41;49.23;101583.00;5027218;28;20025;-70
2021/07/15 17:20:03;;;;;;;15.23;3.50;;;;;;;18.12;50.06;101581.25;5045699;28;20048;-70
2021/07/15 17:22:29;;;;;;;14.50;2.78;;;;;;;18.37;49.97;101573.56;5044947;28;20037;-69
2021/07/15 17:24:55;;;;;;;14.45;3.05;;;;;;;17.82;50.08;101592.75;5044889;28;20028;-70
2021/07/15 17:27:20;;;;;;;8.45;3.05;;;;;;;18.31;49.72;101588.97;5045804;28;20108;-71
2021/07/15 17:29:46;;;;;;;13.60;3.53;;;;;;;18.28;50.17;101603.25;5026643;28;20036;-69
2021/07/15 17:32:13;;;;;;;23.02;4.60;;;;;;;18.33;49.78;101608.25;5012987;28;20095;-69
2021/07/15 17:34:42;;;;;;;16.83;4.00;;;;;;;18.34;49.38;101605.53;5045870;28;20029;-70
2021/07/15 17:37:08;;;;;;;9.85;4.38;;;;;;;17.85;50.88;101598.72;5044251;28;20025;-67
2021/07/15 17:39:33;;;;;;;14.23;3.28;;;;;;;17.91;50.56;101613.34;5046108;28;20036;-68
2021/07/15 17:41:59;;;;;;;14.25;2.92;;;;;;;18.25;49.67;101611.34;5019680;28;20037;-72
2021/07/15 17:44:25;;;;;;;24.83;3.92;;;;;;;18.69;49.12;101615.69;5044666;28;20159;-69
2021/07/15 17:46:51;;;;;;;11.25;3.05;;;;;;;18.16;50.52;101612.75;5044957;28;20067;-71
2021/07/15 17:49:18;;;;;;;11.50;2.95;;;;;;;18.31;49.94;101626.00;5045400;28;20355;-72
2021/07/15 17:51:44;;;;;;;20.27;3.78;;;;;;;18.40;49.44;101621.00;5025994;28;20044;-73
2021/07/15 17:54:10;;;;;;;13.25;4.90;;;;;;;18.21;49.73;101625.72;5045023;28;20033;-71
2021/07/15 17:56:37;;;;;;;11.38;3.28;;;;;;;17.98;49.66;101638.50;5044879;28;20520;-72
2021/07/15 17:59:03;;;;;;;25.17;5.10;;;;;;;18.57;49.46;101648.25;5042238;28;20041;-72
2021/07/15 18:01:28;;;;;;;17.80;5.25;;;;;;;18.07;50.38;101647.66;5019883;28;20036;-70
2021/07/15 18:03:54;;;;;;;15.70;3.20;;;;;;;17.73;50.95;101651.47;5043114;28;20044;-72
2021/07/15 18:06:19;;;;;;;14.30;4.30;;;;;;;17.60;51.04;101660.13;5041764;28;20040;-70
2021/07/15 18:08:45;;;;;;;13.50;3.67;;;;;;;17.42;51.76;101659.31;5024297;28;20043;-72
2021/07/15 18:11:11;;;;;;;15.50;3.60;;;;;;;17.22;52.25;101663.09;5028088;28;20039;-71
2021/07/15 18:13:38;;;;;;;15.98;4.72;;;;;;;17.52;51.21;101669.41;5042154;28;20052;-71
2021/07/15 18:16:07;;;;;;;21.25;4.38;;;;;;;17.46;51.93;101675.84;5023912;28;20522;-71
2021/07/15 18:18:33;;;;;;;12.93;3.88;;;;;;;17.82;50.53;101678.22;5013798;28;20047;-73
2021/07/15 18:21:00;;;;;;;20.13;4.05;;;;;;;17.58;51.19;101688.44;5042760;28;20329;-73
2021/07/15 18:23:26;;;;;;;11.77;4.07;;;;;;;17.37;51.66;101692.25;5040961;28;20064;-70
2021/07/15 18:25:52;;;;;;;13.07;3.38;;;;;;;17.47;51.51;101698.72;5023969;28;20039;-72
2021/07/15 18:28:17;;;;;;;10.45;3.83;;;;;;;17.35;51.74;101700.25;5040926;28;20032;-72
2021/07/15 18:30:44;;;;;;;14.00;3.25;;;;;;;17.30;51.71;101690.88;5041717;28;20051;-68
2021/07/15 18:33:10;;;;;;;13.15;3.60;;;;;;;17.23;51.75;101695.66;5041817;28;20531;-70
2021/07/15 18:35:37;;;;;;;8.88;3.67;;;;;;;17.39;51.63;101703.56;5041330;28;20028;-70
2021/07/15 18:38:03;;;;;;;14.93;3.95;;;;;;;17.36;51.70;101707.25;5042460;28;20033;-71
2021/07/15 18:40:28;;;;;;;17.35;3.78;;;;;;;17.33;51.85;101703.91;5041218;28;20052;-74
2021/07/15 18:42:56;;;;;;;13.63;3.63;;;;;;;17.57;51.14;101704.38;5042323;28;20489;-70
2021/07/15 18:45:23;;;;;;;15.40;3.30;;;;;;;17.51;51.23;101710.00;5039976;28;20086;-69
2021/07/15 18:47:50;;;;;;;10.45;3.13;;;;;;;17.44;50.83;101709.44;5023317;28;20033;-69
2021/07/15 18:50:20;;;;;;;13.75;4.25;;;;;;;17.30;51.82;101704.09;5013998;28;20083;-70
2021/07/15 18:52:47;;;;;;;18.35;4.07;;;;;;;17.34;51.68;101706.47;5019654;28;20025;-70
2021/07/15 18:55:14;;;;;;;16.95;4.43;;;;;;;17.64;50.57;101700.44;5021716;28;20037;-69
2021/07/15 18:57:40;;;;;;;12.95;3.47;;;;;;;17.26;51.65;101705.19;5023900;28;20033;-72
2021/07/15 19:00:09;;;;;;;16.27;2.92;;;;;;;16.96;52.13;101704.16;5041503;28;20055;-73
2021/07/15 19:02:35;;;;;;;15.52;2.67;;;;;;;16.61;53.15;101711.25;5040027;28;20029;-70
2021/07/15 19:05:00;;;;;;;13.20;3.55;;;;;;;16.87;52.33;101699.38;5042119;28;20040;-69
2021/07/15 19:07:26;;;;;;;19.85;4.10;;;;;;;16.89;52.71;101696.63;5040226;28;20032;-72
2021/07/15 19:09:51;;;;;;;11.52;3.50;;;;;;;16.69;53.42;101695.88;5041709;28;20244;-72
2021/07/15 19:12:17;;;;;;;11.18;2.92;;;;;;;16.78;52.44;101700.72;5022637;28;20060;-69
2021/07/15 19:14:42;;;;;;;12.88;3.50;;;;;;;16.67;52.81;101702.19;5023668;28;20060;-71
2021/07/15 19:17:08;;;;;;;11.73;2.78;;;;;;;17.03;51.94;101707.31;5021348;28;20059;-73
2021/07/15 19:19:33;;;;;;;15.98;4.40;;;;;;;16.66;52.91;101708.38;5041623;28;20498;-69
2021/07/15 19:21:58;;;;;;;10.45;3.83;;;;;;;16.56;53.19;101708.03;5041225;28;20112;-69
2021/07/15 19:24:24;;;;;;;11.25;2.30;;;;;;;16.52;53.28;101715.22;5040690;28;20497;-69
2021/07/15 19:26:50;;;;;;;9.93;3.47;;;;;;;16.61;53.01;101725.31;5023012;28;20041;-69
2021/07/15 19:29:16;;;;;;;13.98;3.60;;;;;;;16.80;52.04;101725.25;5039603;28;20032;-72
2021/07/15 19:31:42;;;;;;;8.20;3.10;;;;;;;16.72;52.58;101722.09;5023930;28;20122;-73
2021/07/15 19:34:08;;;;;;;14.73;3.42;;;;;;;16.74;52.94;101729.97;5040291;28;20379;-71
2021/07/15 19:36:34;;;;;;;16.60;3.53;;;;;;;17.01;52.11;101732.94;5042148;28;20087;-72
2021/07/15 19:39:00;;;;;;;15.10;3.33;;;;;;;16.75;52.58;101737.81;5039450;28;20033;-71
2021/07/15 19:41:25;;;;;;;13.55;3.95;;;;;;;16.61;52.75;101741.16;4988668;28;20236;-70
2021/07/15 19:43:51;;;;;;;15.35;3.95;;;;;;;16.27;54.07;101749.94;5001926;28;20056;-71
2021/07/15 19:46:16;;;;;;;13.77;2.72;;;;;;;16.38;53.30;101750.25;5002028;28;20037;-70
2021/07/15 19:48:42;;;;;;;14.55;3.65;;;;;;;16.40;53.01;101758.94;4985663;28;20076;-70
2021/07/15 19:51:07;;;;;;;10.07;2.58;;;;;;;16.40;53.40;101763.38;4982370;28;20029;-69
2021/07/15 19:53:33;;;;;;;11.80;3.85;;;;;;;16.82;51.88;101760.34;4981491;28;20041;-73
2021/07/15 19:55:58;;;;;;;16.45;4.13;;;;;;;16.55;52.91;101769.63;5000858;28;20042;-70
2021/07/15 19:58:24;;;;;;;15.00;3.28;;;;;;;16.21;53.47;101763.44;5001500;28;20088;-70
2021/07/15 20:00:49;;;;;;;11.90;4.00;;;;;;;16.38;52.96;101760.81;5001638;28;20034;-72
2021/07/15 20:03:15;;;;;;;17.60;4.15;;;;;;;16.36;52.80;101756.53;5004864;28;20398;-71
2021/07/15 20:05:41;;;;;;;12.20;2.83;;;;;;;15.96;53.91;101759.34;5005704;28;20197;-72
2021/07/15 20:08:06;;;;;;;13.55;2.70;;;;;;;16.24;53.05;101757.16;5004404;28;20121;-72
2021/07/15 20:10:32;;;;;;;11.18;3.47;;;;;;;16.10;53.63;101755.19;4998383;28;20036;-72
2021/07/15 20:12:59;;;;;;;12.15;2.88;;;;;;;16.19;53.75;101754.75;5004955;28;20052;-68
2021/07/15 20:15:27;;;;;;;17.60;3.22;;;;;;;16.08;53.78;101746.50;5003720;28;20069;-69
2021/07/15 20:18:00;;;;;;;12.18;2.88;;;;;;;16.43;53.15;101747.38;4981346;28;20084;-70
2021/07/15 20:20:27;;;;;;;19.77;3.90;;;;;;;16.30;52.88;101755.06;4986465;28;20121;-69
2021/07/15 20:22:53;;;;;;;15.20;4.45;;;;;;;16.34;52.66;101756.59;4998284;28;20021;-71
2021/07/15 20:25:19;;;;;;;21.00;4.10;;;;;;;16.42;53.20;101762.34;4986347;28;20454;-71
2021/07/15 20:27:45;;;;;;;7.57;2.65;;;;;;;16.30;52.72;101755.06;5005216;28;20503;-70
2021/07/15 20:30:13;;;;;;;16.73;3.78;;;;;;;16.09;53.09;101754.34;5004537;28;20513;-69
2021/07/15 20:32:38;;;;;;;14.30;3.92;;;;;;;16.16;53.07;101754.91;5004400;28;20398;-70
2021/07/15 20:35:05;;;;;;;11.15;3.45;;;;;;;15.63;54.11;101767.09;4970899;28;20511;-70
2021/07/15 20:37:31;;;;;;;13.07;3.08;;;;;;;16.34;52.16;101763.69;4978848;28;20090;-69
2021/07/15 20:39:56;;;;;;;12.75;3.30;;;;;;;16.27;52.09;101762.28;4987999;28;20054;-71
2021/07/15 20:42:22;;;;;;;17.92;2.97;;;;;;;16.33;51.85;101767.22;5006802;28;20034;-71
2021/07/15 20:44:47;;;;;;;14.60;3.95;;;;;;;15.73;53.46;101772.78;4987167;28;20554;-69
2021/07/15 20:47:13;;;;;;;15.80;3.58;;;;;;;16.02;52.51;101762.63;4988491;28;20039;-68
2021/07/15 20:49:38;;;;;;;13.88;3.28;;;;;;;16.12;51.98;101774.44;5006607;28;20034;-70
2021/07/15 20:52:04;;;;;;;12.93;3.80;;;;;;;16.15;51.94;101771.63;5007171;28;20323;-69
2021/07/15 20:54:29;;;;;;;11.15;3.15;;;;;;;16.06;51.92;101770.31;5005750;28;20044;-71
2021/07/15 20:56:55;;;;;;;11.32;3.83;;;;;;;16.03;52.61;101770.47;5007339;28;20406;-72
2021/07/15 20:59:21;;;;;;;7.93;2.78;;;;;;;15.57;53.36;101777.91;5005866;28;20033;-72
2021/07/15 21:01:46;;;;;;;11.18;3.53;;;;;;;15.85;53.19;101771.34;4989892;28;20073;-72
2021/07/15 21:04:12;;;;;;;22.77;3.65;;;;;;;15.99;53.07;101780.28;5005245;28;20080;-71
2021/07/15 21:06:37;;;;;;;16.95;3.90;;;;;;;16.08;52.20;101783.44;5007250;28;20051;-68
2021/07/15 21:09:03;;;;;;;12.05;3.25;;;;;;;15.98;52.39;101794.38;5006775;28;20466;-70
2021/07/15 21:11:29;;;;;;;17.02;3.38;;;;;;;16.07;52.39;101798.41;4987574;28;20040;-72
2021/07/15 21:13:55;;;;;;;13.35;3.75;;;;;;;16.10;52.24;101797.38;4998294;28;20034;-70
2021/07/15 21:16:20;;;;;;;9.95;2.92;;;;;;;15.86;52.72;101799.38;4987441;28;20041;-72
2021/07/15 21:18:45;;;;;;;16.65;5.10;;;;;;;15.88;52.58;101803.66;4987530;28;20258;-70
2021/07/15 21:21:11;;;;;;;14.70;4.45;;;;;;;15.86;52.35;101816.06;5005694;28;20041;-73
2021/07/15 21:23:37;;;;;;;11.27;3.80;;;;;;;16.16;52.13;101815.56;5007684;28;20401;-73
2021/07/15 21:26:06;;;;;;;12.30;3.92;;;;;;;16.46;51.06;101817.59;5006280;28;20042;-72
2021/07/15 21:28:32;;;;;;;12.98;4.05;;;;;;;16.37;51.04;101824.19;5006710;28;20516;-72
2021/07/15 21:30:58;;;;;;;14.93;3.55;;;;;;;16.26;51.63;101829.13;5006142;28;20033;-71
2021/07/15 21:33:24;;;;;;;14.90;4.03;;;;;;;16.63;50.57;101829.00;4987934;28;20117;-72
2021/07/15 21:35:49;;;;;;;18.67;4.32;;;;;;;16.35;51.27;101829.56;4988602;28;20418;-74
2021/07/15 21:38:15;;;;;;;25.20;4.30;;;;;;;16.51;50.69;101823.50;5006135;28;20087;-73
2021/07/15 21:40:40;;;;;;;15.73;3.72;;;;;;;15.99;52.07;101827.75;4989614;28;20040;-72
2021/07/15 21:43:06;;;;;;;29.13;5.65;;;;;;;16.40;50.94;101824.91;4988188;28;20037;-73
2021/07/15 21:45:32;;;;;;;16.63;4.18;;;;;;;16.12;51.88;101824.53;4988745;28;20030;-72
2021/07/15 21:47:57;;;;;;;15.10;3.55;;;;;;;16.44;51.13;101827.38;5006006;28;20293;-69
2021/07/15 21:50:24;;;;;;;17.40;4.03;;;;;;;16.36;51.51;101825.13;4987973;28;20034;-69
2021/07/15 21:52:51;;;;;;;14.77;3.95;;;;;;;16.19;51.69;101823.31;5006035;28;20022;-69
2021/07/15 21:55:17;;;;;;;20.73;3.90;;;;;;;16.19;51.54;101825.94;5005200;28;20045;-70
2021/07/15 21:57:45;;;;;;;21.23;3.55;;;;;;;16.05;52.10;101820.50;5005192;28;20042;-70
2021/07/15 22:00:25;;;;;;;17.42;4.30;;;;;;;16.30;51.51;101818.38;5004586;28;20038;-68
2021/07/15 22:02:53;;;;;;;23.00;4.30;;;;;;;16.65;50.66;101810.47;4987221;28;20399;-71
2021/07/15 22:05:20;;;;;;;21.58;4.63;;;;;;;16.67;50.88;101808.63;4988160;28;20505;-69
2021/07/15 22:07:46;;;;;;;20.55;3.58;;;;;;;16.45;51.03;101806.19;5005538;28;20139;-70